createdAt,value
2022-10-13T00:00:49.855Z,8.85
2022-10-13T00:03:17.292Z,7.80
2022-10-13T00:05:48.214Z,6.97
2022-10-13T00:08:19.936Z,6.20
2022-10-13T00:10:49.583Z,6.47
2022-10-13T00:13:19.879Z,7.47
2022-10-13T00:15:48.022Z,6.78
2022-10-13T00:18:15.839Z,7.05
2022-10-13T00:20:48.633Z,7.85
2022-10-13T00:23:16.675Z,8.45
2022-10-13T00:25:46.553Z,9.48
2022-10-13T00:28:16.740Z,9.05
2022-10-13T00:30:43.503Z,8.18
2022-10-13T00:33:11.771Z,8.40
2022-10-13T00:35:48.109Z,7.75
2022-10-13T00:38:17.648Z,7.50
2022-10-13T00:40:55.843Z,8.02
2022-10-13T00:43:47.108Z,7.03
2022-10-13T00:46:14.939Z,7.75
2022-10-13T00:48:43.219Z,7.80
2022-10-13T00:51:12.888Z,8.25
2022-10-13T00:53:40.319Z,7.55
2022-10-13T00:56:10.256Z,7.20
2022-10-13T00:58:39.051Z,8.88
2022-10-13T01:01:07.353Z,8.60
2022-10-13T01:03:34.672Z,7.90
2022-10-13T01:06:04.883Z,7.45
2022-10-13T01:08:31.908Z,7.47
2022-10-13T01:11:08.803Z,7.80
2022-10-13T01:14:18.360Z,8.23
2022-10-13T01:16:53.524Z,8.57
2022-10-13T01:19:45.503Z,9.80
2022-10-13T01:22:53.524Z,9.07
2022-10-13T01:25:57.384Z,9.25
2022-10-13T01:29:14.547Z,8.32
2022-10-13T01:31:51.316Z,8.02
2022-10-13T01:34:44.464Z,8.38
2022-10-13T01:37:33.851Z,7.93
2022-10-13T01:40:13.919Z,8.18
2022-10-13T01:42:58.162Z,8.10
2022-10-13T01:45:37.346Z,9.27
2022-10-13T01:48:05.939Z,8.38
2022-10-13T01:50:34.702Z,8.52
2022-10-13T01:53:04.959Z,8.70
2022-10-13T01:55:31.991Z,8.30
2022-10-13T01:57:58.563Z,8.52
2022-10-13T02:00:26.084Z,8.27
2022-10-13T02:03:40.080Z,8.35
2022-10-13T02:06:34.062Z,8.35
2022-10-13T02:09:28.439Z,8.13
2022-10-13T02:12:24.891Z,8.07
2022-10-13T02:14:59.051Z,8.10
2022-10-13T02:17:28.058Z,8.32
2022-10-13T02:19:56.420Z,8.55
2022-10-13T02:22:30.401Z,7.88
2022-10-13T02:24:57.082Z,8.18
2022-10-13T02:27:23.914Z,7.50
2022-10-13T02:29:56.734Z,8.98
2022-10-13T02:32:24.024Z,7.35
2022-10-13T02:34:51.255Z,8.07
2022-10-13T02:37:18.067Z,7.28
2022-10-13T02:39:44.679Z,7.82
2022-10-13T02:42:11.431Z,7.30
2022-10-13T02:44:39.215Z,7.93
2022-10-13T02:47:06.019Z,7.28
2022-10-13T02:49:32.574Z,7.95
2022-10-13T02:51:59.141Z,7.20
2022-10-13T02:54:27.175Z,7.45
2022-10-13T02:56:53.743Z,7.50
2022-10-13T02:59:20.363Z,7.13
2022-10-13T03:01:46.903Z,7.53
2022-10-13T03:04:13.488Z,7.78
2022-10-13T03:06:40.099Z,7.93
2022-10-13T03:09:06.787Z,7.13
2022-10-13T03:11:34.398Z,7.35
2022-10-13T03:14:00.925Z,7.43
2022-10-13T03:16:27.497Z,6.88
2022-10-13T03:18:54.072Z,7.05
2022-10-13T03:21:20.837Z,7.15
2022-10-13T03:23:47.434Z,7.05
2022-10-13T03:26:15.403Z,6.80
2022-10-13T03:28:42.255Z,7.32
2022-10-13T03:31:11.099Z,6.63
2022-10-13T03:33:37.655Z,6.65
2022-10-13T03:36:07.311Z,6.82
2022-10-13T03:38:35.588Z,7.00
2022-10-13T03:41:11.699Z,7.55
2022-10-13T03:43:39.188Z,7.70
2022-10-13T03:46:07.679Z,10.25
2022-10-13T03:48:35.868Z,12.38
2022-10-13T03:51:11.256Z,11.68
2022-10-13T03:53:38.024Z,13.80
2022-10-13T03:56:06.442Z,12.85
2022-10-13T03:58:34.029Z,11.50
2022-10-13T04:01:05.222Z,10.57
2022-10-13T04:03:34.383Z,8.57
2022-10-13T04:06:03.019Z,8.32
2022-10-13T04:08:32.083Z,7.90
2022-10-13T04:11:02.768Z,8.18
2022-10-13T04:13:29.369Z,8.90
2022-10-13T04:15:55.947Z,9.23
2022-10-13T04:18:22.511Z,8.35
2022-10-13T04:20:49.139Z,8.80
2022-10-13T04:23:15.845Z,8.55
2022-10-13T04:25:44.971Z,9.02
2022-10-13T04:28:12.715Z,7.28
2022-10-13T04:30:39.611Z,8.77
2022-10-13T04:33:06.360Z,8.38
2022-10-13T04:35:33.063Z,8.48
2022-10-13T04:37:59.691Z,9.00
2022-10-13T04:40:27.304Z,9.75
2022-10-13T04:42:53.942Z,9.88
2022-10-13T04:45:20.556Z,10.95
2022-10-13T04:47:47.441Z,10.57
2022-10-13T04:50:14.135Z,9.38
2022-10-13T04:52:40.700Z,9.25
2022-10-13T04:55:10.111Z,9.10
2022-10-13T04:57:37.001Z,9.95
2022-10-13T05:00:07.116Z,9.77
2022-10-13T05:02:36.037Z,9.25
2022-10-13T05:05:03.475Z,9.50
2022-10-13T05:07:31.716Z,10.00
2022-10-13T05:09:58.296Z,10.52
2022-10-13T05:12:24.972Z,9.88
2022-10-13T05:14:51.556Z,9.27
2022-10-13T05:17:18.101Z,10.25
2022-10-13T05:19:44.668Z,9.55
2022-10-13T05:22:11.283Z,10.07
2022-10-13T05:24:38.417Z,9.43
2022-10-13T05:27:13.175Z,9.57
2022-10-13T05:29:40.929Z,9.90
2022-10-13T05:32:08.378Z,9.88
2022-10-13T05:34:35.021Z,8.93
2022-10-13T05:37:01.834Z,10.48
2022-10-13T05:39:30.843Z,10.38
2022-10-13T05:41:57.653Z,8.82
2022-10-13T05:44:24.545Z,10.43
2022-10-13T05:46:51.162Z,9.27
2022-10-13T05:49:20.062Z,9.82
2022-10-13T05:51:51.212Z,10.40
2022-10-13T05:54:24.551Z,11.25
2022-10-13T05:56:59.907Z,11.40
2022-10-13T05:59:30.601Z,11.25
2022-10-13T06:01:57.498Z,10.32
2022-10-13T06:04:43.035Z,11.00
2022-10-13T06:07:10.131Z,10.98
2022-10-13T06:09:40.808Z,10.23
2022-10-13T06:12:08.992Z,10.98
2022-10-13T06:14:36.303Z,10.77
2022-10-13T06:17:03.284Z,11.05
2022-10-13T06:19:29.887Z,11.55
2022-10-13T06:21:59.947Z,12.60
2022-10-13T06:24:29.248Z,12.13
2022-10-13T06:26:55.804Z,10.60
2022-10-13T06:29:22.444Z,10.95
2022-10-13T06:31:49.050Z,11.10
2022-10-13T06:34:15.693Z,11.40
2022-10-13T06:36:42.277Z,14.52
2022-10-13T06:39:09.190Z,11.80
2022-10-13T06:41:37.298Z,13.98
2022-10-13T06:44:04.233Z,14.77
2022-10-13T06:46:30.986Z,12.40
2022-10-13T06:48:57.717Z,11.10
2022-10-13T06:51:24.386Z,15.30
2022-10-13T06:53:50.992Z,13.52
2022-10-13T06:56:17.685Z,12.18
2022-10-13T06:58:44.264Z,12.98
2022-10-13T07:01:13.301Z,16.38
2022-10-13T07:03:39.857Z,13.18
2022-10-13T07:06:07.789Z,10.93
2022-10-13T07:08:34.988Z,10.50
2022-10-13T07:11:15.969Z,9.63
2022-10-13T07:13:46.405Z,8.52
2022-10-13T07:16:14.256Z,8.77
2022-10-13T07:18:40.837Z,8.10
2022-10-13T07:21:07.541Z,8.25
2022-10-13T07:23:34.193Z,8.18
2022-10-13T07:26:01.649Z,8.55
2022-10-13T07:28:28.832Z,8.23
2022-10-13T07:30:55.539Z,7.65
2022-10-13T07:33:22.488Z,7.47
2022-10-13T07:35:49.086Z,6.78
2022-10-13T07:38:15.684Z,7.20
2022-10-13T07:40:42.436Z,7.40
2022-10-13T07:43:09.018Z,7.35
2022-10-13T07:45:35.764Z,7.35
2022-10-13T07:48:02.394Z,8.85
2022-10-13T07:50:29.891Z,8.10
2022-10-13T07:52:56.543Z,7.93
2022-10-13T07:55:23.258Z,7.43
2022-10-13T07:57:49.826Z,7.43
2022-10-13T08:00:16.766Z,7.55
2022-10-13T08:02:43.383Z,7.85
2022-10-13T08:05:10.050Z,8.45
2022-10-13T08:07:39.092Z,9.13
2022-10-13T08:10:06.558Z,8.45
2022-10-13T08:12:36.159Z,8.55
2022-10-13T08:15:06.336Z,8.93
2022-10-13T08:17:33.588Z,8.27
2022-10-13T08:20:00.243Z,7.65
2022-10-13T08:22:28.361Z,9.50
2022-10-13T08:24:55.887Z,8.63
2022-10-13T08:27:37.077Z,9.48
2022-10-13T08:30:12.024Z,9.15
2022-10-13T08:32:38.654Z,9.02
2022-10-13T08:35:05.926Z,9.90
2022-10-13T08:37:32.511Z,9.25
2022-10-13T08:39:59.071Z,9.23
2022-10-13T08:42:25.688Z,9.48
2022-10-13T08:45:22.126Z,9.40
2022-10-13T08:47:53.064Z,9.10
2022-10-13T08:50:24.220Z,18.90
2022-10-13T08:52:58.049Z,15.40
2022-10-13T08:55:33.499Z,31.25
2022-10-13T08:58:02.729Z,22.73
2022-10-13T09:00:30.099Z,14.32
2022-10-13T09:03:20.227Z,11.68
2022-10-13T09:06:11.576Z,11.07
2022-10-13T09:08:45.563Z,8.77
2022-10-13T09:11:13.293Z,9.95
2022-10-13T09:13:40.752Z,9.38
2022-10-13T09:16:08.088Z,10.05
2022-10-13T09:18:35.192Z,10.10
2022-10-13T09:21:23.541Z,10.43
2022-10-13T09:23:53.862Z,14.18
2022-10-13T09:26:24.336Z,15.40
2022-10-13T09:28:52.841Z,17.13
2022-10-13T09:31:23.772Z,18.05
2022-10-13T09:34:13.848Z,16.83
2022-10-13T09:36:59.589Z,12.48
2022-10-13T09:39:26.648Z,12.85
2022-10-13T09:42:17.890Z,10.85
2022-10-13T09:44:45.508Z,12.38
2022-10-13T09:47:21.605Z,14.32
2022-10-13T09:50:06.464Z,17.35
2022-10-13T09:52:34.776Z,16.92
2022-10-13T09:55:01.594Z,16.33
2022-10-13T09:57:41.361Z,17.15
2022-10-13T10:00:24.155Z,17.73
2022-10-13T10:03:18.345Z,18.98
2022-10-13T10:05:55.246Z,18.15
2022-10-13T10:09:08.633Z,18.00
2022-10-13T10:11:45.251Z,19.10
2022-10-13T10:14:25.056Z,18.65
2022-10-13T10:17:16.526Z,19.92
2022-10-13T10:20:13.118Z,19.10
2022-10-13T10:23:29.194Z,20.83
2022-10-13T10:26:03.826Z,22.02
2022-10-13T10:29:00.896Z,21.77
2022-10-13T10:31:52.278Z,21.85
2022-10-13T10:34:35.070Z,23.02
2022-10-13T10:37:26.269Z,21.98
2022-10-13T10:40:35.809Z,21.15
2022-10-13T10:43:48.394Z,20.40
2022-10-13T10:46:29.285Z,21.05
2022-10-13T10:49:02.889Z,21.73
2022-10-13T10:51:36.659Z,20.00
2022-10-13T10:54:49.051Z,20.35
2022-10-13T10:57:40.178Z,19.95
2022-10-13T11:00:19.207Z,20.63
2022-10-13T11:03:17.174Z,19.38
2022-10-13T11:06:05.798Z,18.63
2022-10-13T11:08:38.474Z,20.35
2022-10-13T11:11:24.917Z,20.60
2022-10-13T11:14:05.066Z,19.92
2022-10-13T11:17:03.682Z,20.02
2022-10-13T11:19:35.052Z,19.13
2022-10-13T11:22:01.607Z,20.02
2022-10-13T11:24:34.379Z,20.25
2022-10-13T11:27:15.999Z,20.70
2022-10-13T11:29:47.038Z,19.17
2022-10-13T11:32:25.941Z,19.67
2022-10-13T11:35:04.710Z,19.40
2022-10-13T11:38:05.974Z,17.13
2022-10-13T11:40:36.118Z,16.60
2022-10-13T11:43:35.934Z,16.70
2022-10-13T11:46:49.526Z,15.82
2022-10-13T11:49:55.481Z,16.40
2022-10-13T11:52:45.270Z,15.75
2022-10-13T11:55:47.788Z,16.38
2022-10-13T11:58:43.821Z,15.07
2022-10-13T12:01:15.870Z,15.52
2022-10-13T12:03:45.810Z,15.18
2022-10-13T12:06:35.602Z,17.40
2022-10-13T12:09:14.374Z,16.90
2022-10-13T12:11:41.126Z,15.23
2022-10-13T12:14:23.887Z,14.35
2022-10-13T12:16:59.523Z,13.98
2022-10-13T12:19:30.626Z,15.65
2022-10-13T12:22:01.254Z,13.55
2022-10-13T12:24:30.382Z,12.18
2022-10-13T12:26:59.197Z,10.90
2022-10-13T12:29:31.074Z,9.27
2022-10-13T12:32:00.186Z,8.07
2022-10-13T12:34:33.122Z,7.90
2022-10-13T12:37:14.118Z,8.07
2022-10-13T12:39:41.382Z,6.47
2022-10-13T12:42:11.030Z,6.88
2022-10-13T12:44:37.927Z,6.50
2022-10-13T12:47:04.582Z,6.50
2022-10-13T12:49:34.608Z,6.25
2022-10-13T12:52:15.447Z,7.68
2022-10-13T12:54:55.494Z,6.90
2022-10-13T12:57:35.039Z,5.75
2022-10-13T13:00:22.149Z,6.28
2022-10-13T13:03:01.807Z,5.82
2022-10-13T13:05:45.742Z,5.70
2022-10-13T13:08:30.116Z,6.53
2022-10-13T13:11:04.615Z,6.35
2022-10-13T13:13:31.398Z,6.82
2022-10-13T13:16:21.378Z,5.35
2022-10-13T13:18:50.173Z,5.88
2022-10-13T13:21:19.245Z,5.80
2022-10-13T13:23:52.711Z,5.28
2022-10-13T13:26:23.272Z,5.18
2022-10-13T13:28:55.018Z,5.18
2022-10-13T13:31:24.740Z,5.70
2022-10-13T13:33:51.551Z,5.75
2022-10-13T13:36:26.003Z,5.00
2022-10-13T13:38:54.030Z,5.97
2022-10-13T13:41:21.810Z,6.28
2022-10-13T13:43:49.288Z,5.28
2022-10-13T13:46:19.825Z,5.60
2022-10-13T13:48:46.713Z,5.05
2022-10-13T13:51:14.020Z,5.00
2022-10-13T13:53:40.888Z,4.88
2022-10-13T13:56:13.840Z,5.30
2022-10-13T13:58:40.432Z,4.80
2022-10-13T14:01:07.351Z,4.97
2022-10-13T14:03:33.918Z,4.95
2022-10-13T14:06:00.652Z,5.15
2022-10-13T14:08:34.284Z,4.93
2022-10-13T14:11:01.197Z,4.75
2022-10-13T14:13:27.898Z,4.50
2022-10-13T14:15:58.860Z,4.20
2022-10-13T14:18:26.180Z,3.78
2022-10-13T14:20:52.814Z,4.72
2022-10-13T14:23:19.632Z,4.50
2022-10-13T14:25:46.277Z,3.90
2022-10-13T14:28:17.909Z,4.10
2022-10-13T14:30:44.958Z,4.15
2022-10-13T14:33:11.540Z,4.10
2022-10-13T14:35:41.680Z,6.97
2022-10-13T14:38:08.230Z,7.03
2022-10-13T14:40:34.805Z,7.55
2022-10-13T14:43:01.437Z,7.10
2022-10-13T14:45:27.991Z,7.45
2022-10-13T14:47:54.559Z,8.00
2022-10-13T14:50:21.157Z,8.15
2022-10-13T14:52:47.714Z,8.88
2022-10-13T14:55:14.576Z,7.68
2022-10-13T14:57:41.217Z,8.45
2022-10-13T15:00:10.436Z,7.80
2022-10-13T15:02:37.032Z,7.72
2022-10-13T15:05:04.084Z,8.02
2022-10-13T15:07:30.720Z,7.97
2022-10-13T15:10:05.891Z,7.43
2022-10-13T15:12:33.524Z,8.10
2022-10-13T15:15:00.097Z,7.38
2022-10-13T15:17:27.809Z,10.18
2022-10-13T15:19:54.431Z,11.45
2022-10-13T15:22:21.219Z,16.00
2022-10-13T15:24:48.041Z,25.05
2022-10-13T15:27:14.625Z,16.20
2022-10-13T15:29:41.340Z,23.92
2022-10-13T15:32:17.550Z,11.32
2022-10-13T15:34:49.865Z,10.05
2022-10-13T15:37:16.546Z,9.80
2022-10-13T15:39:43.331Z,8.88
2022-10-13T15:42:11.527Z,8.82
2022-10-13T15:45:04.914Z,8.30
2022-10-13T15:47:24.997Z,8.77
2022-10-13T15:49:51.585Z,9.02
2022-10-13T15:52:18.522Z,8.65
2022-10-13T15:54:45.298Z,8.20
2022-10-13T15:57:11.896Z,8.57
2022-10-13T15:59:38.511Z,8.68
2022-10-13T16:02:06.654Z,7.88
2022-10-13T16:04:37.315Z,8.43
2022-10-13T16:07:04.929Z,8.77
2022-10-13T16:09:31.682Z,7.80
2022-10-13T16:11:58.294Z,8.25
2022-10-13T16:14:24.940Z,9.15
2022-10-13T16:16:51.577Z,8.50
2022-10-13T16:19:18.152Z,8.23
2022-10-13T16:22:09.561Z,8.40
2022-10-13T16:24:36.230Z,8.98
2022-10-13T16:27:02.910Z,10.18
2022-10-13T16:29:29.714Z,8.70
2022-10-13T16:31:56.286Z,8.38
2022-10-13T16:34:23.245Z,8.48
2022-10-13T16:36:50.425Z,9.07
2022-10-13T16:39:17.057Z,8.02
2022-10-13T16:41:43.690Z,9.75
2022-10-13T16:44:10.517Z,10.30
2022-10-13T16:46:37.235Z,9.00
2022-10-13T16:49:04.034Z,10.48
2022-10-13T16:51:30.689Z,9.45
2022-10-13T16:54:03.876Z,8.82
2022-10-13T16:56:32.113Z,8.77
2022-10-13T16:59:02.730Z,9.20
2022-10-13T17:01:31.097Z,9.95
2022-10-13T17:03:58.169Z,10.48
2022-10-13T17:06:28.004Z,13.98
2022-10-13T17:08:58.437Z,11.48
2022-10-13T17:11:30.305Z,12.00
2022-10-13T17:13:59.183Z,12.77
2022-10-13T17:16:26.943Z,11.77
2022-10-13T17:18:54.590Z,11.20
2022-10-13T17:21:22.018Z,11.57
2022-10-13T17:23:49.110Z,11.20
2022-10-13T17:26:17.811Z,11.93
2022-10-13T17:28:45.211Z,11.15
2022-10-13T17:31:16.700Z,12.25
2022-10-13T17:33:44.063Z,11.82
2022-10-13T17:36:27.523Z,11.40
2022-10-13T17:38:56.483Z,11.63
2022-10-13T17:41:24.389Z,11.95
2022-10-13T17:43:52.051Z,12.02
2022-10-13T17:46:38.462Z,13.40
2022-10-13T17:49:10.059Z,11.45
2022-10-13T17:51:36.820Z,14.23
2022-10-13T17:54:04.379Z,12.23
2022-10-13T17:56:31.484Z,12.18
2022-10-13T17:59:00.777Z,11.82
2022-10-13T18:01:33.880Z,12.80
2022-10-13T18:04:04.915Z,11.90
2022-10-13T18:06:40.370Z,12.45
2022-10-13T18:09:18.112Z,11.65
2022-10-13T18:11:50.250Z,12.50
2022-10-13T18:14:23.322Z,11.75
2022-10-13T18:16:51.901Z,11.77
2022-10-13T18:19:19.152Z,12.10
2022-10-13T18:21:45.821Z,12.48
2022-10-13T18:24:12.667Z,12.05
2022-10-13T18:26:39.896Z,12.18
2022-10-13T18:29:08.567Z,12.63
2022-10-13T18:31:38.403Z,12.07
2022-10-13T18:34:08.912Z,12.13
2022-10-13T18:36:48.145Z,11.80
2022-10-13T18:39:27.584Z,10.43
2022-10-13T18:42:01.348Z,10.80
2022-10-13T18:44:28.391Z,10.30
2022-10-13T18:46:56.403Z,11.35
2022-10-13T18:49:30.812Z,11.95
2022-10-13T18:51:59.102Z,12.18
2022-10-13T18:54:27.053Z,12.73
2022-10-13T18:56:54.057Z,12.88
2022-10-13T18:59:20.885Z,13.32
2022-10-13T19:01:47.665Z,13.57
2022-10-13T19:04:16.085Z,14.18
2022-10-13T19:06:44.267Z,14.35
2022-10-13T19:09:14.082Z,13.38
2022-10-13T19:11:41.189Z,14.70
2022-10-13T19:14:11.988Z,12.68
2022-10-13T19:16:41.845Z,13.25
2022-10-13T19:19:09.023Z,13.57
2022-10-13T19:21:38.686Z,12.63
2022-10-13T19:24:07.065Z,14.48
2022-10-13T19:26:35.504Z,15.23
2022-10-13T19:29:10.237Z,15.27
2022-10-13T19:31:39.543Z,14.25
2022-10-13T19:34:06.249Z,14.85
2022-10-13T19:36:41.016Z,14.05
2022-10-13T19:39:15.448Z,14.88
2022-10-13T19:41:43.974Z,15.00
2022-10-13T19:44:10.853Z,16.67
2022-10-13T19:46:38.032Z,16.15
2022-10-13T19:49:05.332Z,15.82
2022-10-13T19:51:33.950Z,16.80
2022-10-13T19:54:01.401Z,17.25
2022-10-13T19:56:33.970Z,17.48
2022-10-13T19:59:04.133Z,15.88
2022-10-13T20:01:32.040Z,15.55
2022-10-13T20:04:09.023Z,14.18
2022-10-13T20:06:36.379Z,14.13
2022-10-13T20:09:04.421Z,13.68
2022-10-13T20:11:31.090Z,13.85
2022-10-13T20:13:57.729Z,13.43
2022-10-13T20:16:25.175Z,12.60
2022-10-13T20:18:55.112Z,12.07
2022-10-13T20:21:22.392Z,11.88
2022-10-13T20:23:52.928Z,10.88
2022-10-13T20:26:20.761Z,9.10
2022-10-13T20:28:49.007Z,9.43
2022-10-13T20:31:18.939Z,8.88
2022-10-13T20:33:46.888Z,9.82
2022-10-13T20:36:16.955Z,10.50
2022-10-13T20:38:43.606Z,8.52
2022-10-13T20:41:29.295Z,8.63
2022-10-13T20:43:59.651Z,6.95
2022-10-13T20:46:26.702Z,6.25
2022-10-13T20:49:11.748Z,6.85
2022-10-13T20:51:39.584Z,6.60
2022-10-13T20:54:06.299Z,6.65
2022-10-13T20:56:33.402Z,6.25
2022-10-13T20:59:06.101Z,6.57
2022-10-13T21:01:35.248Z,6.72
2022-10-13T21:04:01.843Z,6.80
2022-10-13T21:06:28.508Z,6.10
2022-10-13T21:08:55.216Z,6.05
2022-10-13T21:11:23.379Z,5.97
2022-10-13T21:13:51.176Z,5.05
2022-10-13T21:16:21.696Z,5.55
2022-10-13T21:18:50.667Z,6.07
2022-10-13T21:21:20.768Z,5.65
2022-10-13T21:23:59.979Z,5.90
2022-10-13T21:26:28.838Z,5.70
2022-10-13T21:28:55.937Z,5.43
2022-10-13T21:31:23.847Z,5.32
2022-10-13T21:33:51.596Z,5.35
2022-10-13T21:36:22.401Z,5.70
2022-10-13T21:38:56.409Z,5.38
2022-10-13T21:41:24.230Z,5.82
2022-10-13T21:43:51.778Z,7.47
2022-10-13T21:46:22.169Z,7.13
2022-10-13T21:48:49.342Z,6.55
2022-10-13T21:51:29.279Z,6.40
2022-10-13T21:54:02.223Z,6.07
2022-10-13T21:56:34.081Z,6.10
2022-10-13T21:59:01.010Z,6.68
2022-10-13T22:01:28.625Z,6.20
2022-10-13T22:03:59.084Z,6.93
2022-10-13T22:06:27.094Z,6.50
2022-10-13T22:08:56.772Z,6.25
2022-10-13T22:11:27.284Z,5.60
2022-10-13T22:13:56.796Z,6.28
2022-10-13T22:16:31.011Z,6.22
2022-10-13T22:18:58.167Z,6.30
2022-10-13T22:21:30.231Z,6.60
2022-10-13T22:24:00.318Z,6.50
2022-10-13T22:26:31.315Z,7.05
2022-10-13T22:28:59.955Z,7.07
2022-10-13T22:31:27.301Z,6.10
2022-10-13T22:33:54.432Z,5.22
2022-10-13T22:36:24.534Z,5.47
2022-10-13T22:38:55.097Z,5.15
2022-10-13T22:41:22.212Z,4.88
2022-10-13T22:43:56.925Z,4.90
2022-10-13T22:46:33.906Z,4.95
2022-10-13T22:49:02.101Z,4.75
2022-10-13T22:51:31.200Z,5.13
2022-10-13T22:53:58.071Z,4.38
2022-10-13T22:56:31.636Z,4.63
2022-10-13T22:59:07.871Z,4.63
2022-10-13T23:01:35.300Z,4.63
2022-10-13T23:04:02.603Z,4.70
2022-10-13T23:06:32.600Z,4.35
2022-10-13T23:09:09.324Z,4.20
2022-10-13T23:11:36.018Z,4.95
2022-10-13T23:14:03.209Z,5.05
2022-10-13T23:16:30.800Z,4.45
2022-10-13T23:18:57.473Z,4.75
2022-10-13T23:21:28.306Z,5.05
2022-10-13T23:23:57.968Z,4.90
2022-10-13T23:26:25.131Z,5.47
2022-10-13T23:28:51.840Z,5.40
2022-10-13T23:31:18.580Z,4.50
2022-10-13T23:33:45.604Z,5.32
2022-10-13T23:36:20.093Z,4.97
2022-10-13T23:38:46.732Z,4.80
2022-10-13T23:41:16.040Z,4.38
2022-10-13T23:43:43.670Z,4.60
2022-10-13T23:46:10.885Z,4.70
2022-10-13T23:48:38.212Z,4.20
2022-10-13T23:51:20.376Z,4.60
2022-10-13T23:53:47.148Z,4.20
2022-10-13T23:56:14.088Z,4.72
2022-10-13T23:58:42.861Z,4.75
